CBV8 weather

Comox (St. Joseph's Hospital) Heliport
Comox, British Columbia, Canada

Public forecast

Using degrees Celsius for public forecast. Weather courtesy of forecast.io.

METAR (pilot weather report)

Closest report is Comox Airport, 3.0 nm (5.6 km) NE. Retrieved 2019/07/20 19:00 UTC (15 minutes ago):

CYQQ 201900Z 02006KT 20SM FEW035 BKN250 19/10 A3013 RMK CU1CI7 CONTRAILS SLP205

TAF (pilot weather forecast)

Closest forecast is Comox Airport, 3.0 nm (5.6 km) NE. Retrieved 2019/07/20 18:42 UTC (33 minutes ago):

TAF CYQQ 201739Z 2018/2118 36008KT P6SM FEW040 BECMG 2020/2022 09005KT FM210100 VRB03KT P6SM FEW040 SCT250 FM210700 32005KT P6SM BKN250 RMK NXT FCST BY 210000Z